TimeEST,TemperatureF,Dew PointF,Humidity,Sea Level PressureIn,VisibilityMPH,Wind Direction,Wind SpeedMPH,Gust SpeedMPH,PrecipitationIn,Events,Conditions,WindDirDegrees,DateUTC
12:19 AM,33.8,17.6,52,30.12,10.0,NW,6.9,-,N/A,,Clear,310,2013-02-25 05:19:00
12:39 AM,33.8,17.6,52,30.12,10.0,WNW,4.6,-,N/A,,Clear,300,2013-02-25 05:39:00
12:59 AM,32.0,17.6,55,30.13,10.0,NW,5.8,-,N/A,,Clear,310,2013-02-25 05:59:00
1:19 AM,32.0,17.6,55,30.13,10.0,WNW,9.2,-,N/A,,Clear,300,2013-02-25 06:19:00
2:00 AM,32.0,19.4,60,30.13,10.0,NW,4.6,-,N/A,,Clear,310,2013-02-25 07:00:00
2:20 AM,32.0,19.4,60,30.14,10.0,NW,4.6,-,N/A,,Clear,310,2013-02-25 07:20:00
3:00 AM,32.0,19.4,60,30.13,10.0,WNW,3.5,-,N/A,,Clear,300,2013-02-25 08:00:00
3:20 AM,32.0,19.4,60,30.13,10.0,WNW,4.6,-,N/A,,Clear,290,2013-02-25 08:20:00
3:40 AM,32.0,19.4,60,30.14,10.0,NW,4.6,-,N/A,,Clear,310,2013-02-25 08:40:00
4:00 AM,32.0,19.4,60,30.15,10.0,WNW,3.5,-,N/A,,Clear,300,2013-02-25 09:00:00
4:20 AM,32.0,19.4,60,30.15,10.0,WNW,3.5,-,N/A,,Clear,300,2013-02-25 09:20:00
4:40 AM,32.0,19.4,60,30.15,10.0,WNW,3.5,-,N/A,,Clear,300,2013-02-25 09:40:00
5:00 AM,32.0,19.4,60,30.16,10.0,West,3.5,-,N/A,,Clear,280,2013-02-25 10:00:00
5:20 AM,30.2,19.4,64,30.17,10.0,Calm,Calm,-,N/A,,Clear,0,2013-02-25 10:20:00
5:40 AM,30.2,19.4,64,30.18,10.0,Calm,Calm,-,N/A,,Clear,0,2013-02-25 10:40:00
6:00 AM,30.2,19.4,64,30.17,10.0,WNW,3.5,-,N/A,,Clear,290,2013-02-25 11:00:00
6:20 AM,30.2,19.4,64,30.19,10.0,Calm,Calm,-,N/A,,Clear,0,2013-02-25 11:20:00
7:00 AM,28.4,19.4,69,30.19,10.0,WNW,3.5,-,N/A,,Clear,290,2013-02-25 12:00:00
7:20 AM,30.2,19.4,64,30.19,10.0,Calm,Calm,-,N/A,,Clear,0,2013-02-25 12:20:00
8:00 AM,32.0,21.2,64,30.18,10.0,NNW,3.5,-,N/A,,Clear,330,2013-02-25 13:00:00
8:20 AM,33.8,21.2,60,30.20,10.0,NW,5.8,-,N/A,,Clear,320,2013-02-25 13:20:00
8:40 AM,33.8,21.2,60,30.20,10.0,NNW,6.9,-,N/A,,Clear,340,2013-02-25 13:40:00
9:00 AM,33.8,21.2,60,30.19,10.0,North,5.8,-,N/A,,Clear,350,2013-02-25 14:00:00
9:20 AM,35.6,21.2,56,30.20,10.0,North,6.9,-,N/A,,Clear,350,2013-02-25 14:20:00
9:40 AM,35.6,19.4,52,30.21,10.0,NW,5.8,-,N/A,,Clear,320,2013-02-25 14:40:00
10:00 AM,37.4,19.4,48,30.21,10.0,NW,8.1,-,N/A,,Clear,320,2013-02-25 15:00:00
10:20 AM,37.4,19.4,48,30.22,10.0,NNW,6.9,-,N/A,,Clear,340,2013-02-25 15:20:00
10:41 AM,37.4,21.2,52,30.22,10.0,North,4.6,-,N/A,,Clear,10,2013-02-25 15:41:00
11:01 AM,41.0,21.2,45,30.21,10.0,North,5.8,-,N/A,,Clear,10,2013-02-25 16:01:00
11:21 AM,41.0,21.2,45,30.22,10.0,NNE,6.9,-,N/A,,Clear,20,2013-02-25 16:21:00
11:41 AM,41.0,21.2,45,30.22,10.0,ENE,5.8,-,N/A,,Clear,60,2013-02-25 16:41:00
12:01 PM,41.0,21.2,45,30.23,10.0,NNE,3.5,-,N/A,,Clear,30,2013-02-25 17:01:00
12:21 PM,41.0,21.2,45,30.22,10.0,NNE,5.8,-,N/A,,Clear,20,2013-02-25 17:21:00
12:41 PM,41.0,23.0,49,30.21,10.0,ENE,4.6,-,N/A,,Clear,60,2013-02-25 17:41:00
1:01 PM,41.0,23.0,49,30.22,10.0,NNE,5.8,-,N/A,,Clear,30,2013-02-25 18:01:00
1:21 PM,42.8,23.0,46,30.21,10.0,ESE,5.8,-,N/A,,Clear,120,2013-02-25 18:21:00
1:41 PM,42.8,23.0,46,30.20,10.0,Calm,Calm,-,N/A,,Clear,0,2013-02-25 18:41:00
2:01 PM,42.8,21.2,42,30.19,10.0,Calm,Calm,-,N/A,,Clear,0,2013-02-25 19:01:00
2:21 PM,42.8,23.0,46,30.18,10.0,Calm,Calm,-,N/A,,Clear,0,2013-02-25 19:21:00
2:41 PM,42.8,21.2,42,30.18,10.0,Calm,Calm,-,N/A,,Clear,0,2013-02-25 19:41:00
3:01 PM,42.8,21.2,42,30.17,10.0,NE,3.5,-,N/A,,Clear,50,2013-02-25 20:01:00
3:21 PM,42.8,21.2,42,30.18,10.0,East,3.5,-,N/A,,Clear,80,2013-02-25 20:21:00
3:41 PM,42.8,21.2,42,30.17,10.0,NE,5.8,-,N/A,,Clear,50,2013-02-25 20:41:00
4:01 PM,42.8,23.0,46,30.18,10.0,Calm,Calm,-,N/A,,Clear,0,2013-02-25 21:01:00
4:21 PM,42.8,23.0,46,30.19,10.0,ESE,3.5,-,N/A,,Clear,110,2013-02-25 21:21:00
4:41 PM,42.8,23.0,46,30.20,10.0,Calm,Calm,-,N/A,,Clear,0,2013-02-25 21:41:00
5:01 PM,42.8,23.0,46,30.20,10.0,Calm,Calm,-,N/A,,Clear,0,2013-02-25 22:01:00
5:21 PM,41.0,23.0,49,30.20,10.0,Calm,Calm,-,N/A,,Clear,0,2013-02-25 22:21:00
5:41 PM,41.0,23.0,49,30.21,10.0,Calm,Calm,-,N/A,,Clear,0,2013-02-25 22:41:00
6:01 PM,39.2,23.0,52,30.21,10.0,Calm,Calm,-,N/A,,Clear,0,2013-02-25 23:01:00
6:21 PM,37.4,24.8,60,30.21,10.0,Calm,Calm,-,N/A,,Clear,0,2013-02-25 23:21:00
6:41 PM,35.6,24.8,65,30.22,10.0,Calm,Calm,-,N/A,,Clear,0,2013-02-25 23:41:00
7:01 PM,35.6,26.6,70,30.23,10.0,Calm,Calm,-,N/A,,Clear,0,2013-02-26 00:01:00
7:22 PM,33.8,26.6,75,30.24,10.0,Calm,Calm,-,N/A,,Clear,0,2013-02-26 00:22:00
7:42 PM,33.8,24.8,70,30.24,10.0,Calm,Calm,-,N/A,,Clear,0,2013-02-26 00:42:00
8:02 PM,32.0,26.6,80,30.24,10.0,Calm,Calm,-,N/A,,Clear,0,2013-02-26 01:02:00
8:22 PM,32.0,24.8,75,30.24,10.0,Calm,Calm,-,N/A,,Clear,0,2013-02-26 01:22:00
8:42 PM,32.0,26.6,80,30.24,10.0,Calm,Calm,-,N/A,,Clear,0,2013-02-26 01:42:00
9:02 PM,32.0,26.6,80,30.24,10.0,Calm,Calm,-,N/A,,Clear,0,2013-02-26 02:02:00
9:22 PM,32.0,26.6,80,30.24,10.0,Calm,Calm,-,N/A,,Clear,0,2013-02-26 02:22:00
9:42 PM,32.0,26.6,80,30.23,10.0,Calm,Calm,-,N/A,,Clear,0,2013-02-26 02:42:00
10:02 PM,30.2,24.8,80,30.23,10.0,Calm,Calm,-,N/A,,Clear,0,2013-02-26 03:02:00
10:22 PM,30.2,26.6,86,30.23,10.0,Calm,Calm,-,N/A,,Clear,0,2013-02-26 03:22:00
10:42 PM,30.2,24.8,80,30.24,10.0,Calm,Calm,-,N/A,,Clear,0,2013-02-26 03:42:00
11:02 PM,30.2,26.6,86,30.23,10.0,Calm,Calm,-,N/A,,Clear,0,2013-02-26 04:02:00
11:22 PM,30.2,26.6,86,30.21,10.0,Calm,Calm,-,N/A,,Clear,0,2013-02-26 04:22:00
11:42 PM,30.2,26.6,86,30.22,10.0,Calm,Calm,-,N/A,,Clear,0,2013-02-26 04:42:00